createdAt,value
2023-05-09T00:00:37.291Z,14.88
2023-05-09T00:03:05.685Z,14.15
2023-05-09T00:05:33.423Z,15.55
2023-05-09T00:08:00.976Z,15.73
2023-05-09T00:10:28.519Z,16.45
2023-05-09T00:12:56.659Z,16.95
2023-05-09T00:15:25.520Z,17.50
2023-05-09T00:17:53.010Z,17.40
2023-05-09T00:20:20.517Z,18.42
2023-05-09T00:22:48.094Z,14.88
2023-05-09T00:25:15.329Z,14.15
2023-05-09T00:27:42.921Z,15.25
2023-05-09T00:30:10.187Z,15.57
2023-05-09T00:32:37.444Z,13.90
2023-05-09T00:35:05.768Z,13.95
2023-05-09T00:37:32.750Z,12.98
2023-05-09T00:40:00.216Z,12.02
2023-05-09T00:42:27.842Z,12.35
2023-05-09T00:44:54.876Z,11.18
2023-05-09T00:47:23.552Z,11.90
2023-05-09T00:49:51.159Z,12.80
2023-05-09T00:52:22.804Z,12.43
2023-05-09T00:54:51.373Z,12.52
2023-05-09T00:57:19.116Z,11.88
2023-05-09T00:59:46.757Z,12.35
2023-05-09T01:02:15.705Z,12.82
2023-05-09T01:04:44.604Z,12.07
2023-05-09T01:07:24.014Z,11.93
2023-05-09T01:10:30.685Z,11.23
2023-05-09T01:13:10.099Z,11.30
2023-05-09T01:15:41.185Z,11.00
2023-05-09T01:18:13.490Z,11.10
2023-05-09T01:20:51.956Z,10.60
2023-05-09T01:23:40.078Z,10.90
2023-05-09T01:26:22.069Z,11.32
2023-05-09T01:29:26.531Z,10.90
2023-05-09T01:31:54.695Z,12.73
2023-05-09T01:34:22.536Z,13.18
2023-05-09T01:36:50.103Z,13.23
2023-05-09T01:39:17.528Z,13.70
2023-05-09T01:41:44.843Z,13.88
2023-05-09T01:44:12.184Z,13.10
2023-05-09T01:46:39.670Z,13.23
2023-05-09T01:49:07.874Z,13.75
2023-05-09T01:51:35.663Z,14.10
2023-05-09T01:54:02.825Z,13.15
2023-05-09T01:56:30.767Z,12.65
2023-05-09T01:58:58.791Z,11.95
2023-05-09T02:01:26.490Z,11.73
2023-05-09T02:03:54.078Z,11.75
2023-05-09T02:06:23.122Z,12.70
2023-05-09T02:08:51.260Z,12.05
2023-05-09T02:11:18.832Z,12.75
2023-05-09T02:13:46.459Z,12.45
2023-05-09T02:16:13.615Z,12.40
2023-05-09T02:18:41.856Z,11.73
2023-05-09T02:21:08.941Z,11.25
2023-05-09T02:23:36.442Z,11.68
2023-05-09T02:26:03.793Z,11.00
2023-05-09T02:28:30.919Z,11.43
2023-05-09T02:30:58.758Z,11.60
2023-05-09T02:33:25.985Z,10.75
2023-05-09T02:35:53.197Z,10.75
2023-05-09T02:38:21.141Z,10.60
2023-05-09T02:40:50.917Z,11.73
2023-05-09T02:43:19.557Z,11.98
2023-05-09T02:45:47.291Z,11.73
2023-05-09T02:48:14.746Z,11.63
2023-05-09T02:50:43.164Z,11.48
2023-05-09T02:53:10.291Z,10.93
2023-05-09T02:55:40.253Z,11.27
2023-05-09T02:58:14.095Z,11.38
2023-05-09T03:00:43.705Z,11.93
2023-05-09T03:03:12.601Z,10.85
2023-05-09T03:05:40.802Z,11.70
2023-05-09T03:08:07.933Z,11.13
2023-05-09T03:10:35.312Z,10.93
2023-05-09T03:13:02.871Z,11.05
2023-05-09T03:15:30.403Z,9.95
2023-05-09T03:18:00.105Z,10.55
2023-05-09T03:20:27.453Z,10.85
2023-05-09T03:22:54.845Z,10.20
2023-05-09T03:25:22.522Z,10.63
2023-05-09T03:27:50.386Z,10.88
2023-05-09T03:30:17.501Z,10.93
2023-05-09T03:32:48.392Z,10.68
2023-05-09T03:35:15.910Z,11.07
2023-05-09T03:37:43.824Z,10.00
2023-05-09T03:40:11.338Z,9.55
2023-05-09T03:42:48.566Z,8.77
2023-05-09T03:45:16.414Z,10.10
2023-05-09T03:47:45.966Z,10.02
2023-05-09T03:50:13.572Z,9.35
2023-05-09T03:52:41.565Z,9.48
2023-05-09T03:55:09.942Z,9.40
2023-05-09T03:57:37.618Z,8.63
2023-05-09T04:00:06.534Z,9.00
2023-05-09T04:02:42.537Z,8.63
2023-05-09T04:05:19.290Z,9.65
2023-05-09T04:07:47.498Z,9.20
2023-05-09T04:10:16.032Z,9.63
2023-05-09T04:12:43.908Z,9.02
2023-05-09T04:15:11.904Z,8.77
2023-05-09T04:17:40.361Z,8.93
2023-05-09T04:20:08.372Z,9.48
2023-05-09T04:22:36.259Z,9.90
2023-05-09T04:25:04.432Z,9.90
2023-05-09T04:27:31.562Z,9.43
2023-05-09T04:29:58.849Z,9.98
2023-05-09T04:32:27.204Z,9.73
2023-05-09T04:34:54.714Z,9.65
2023-05-09T04:37:27.104Z,8.13
2023-05-09T04:39:54.638Z,10.05
2023-05-09T04:42:28.097Z,8.48
2023-05-09T04:44:55.525Z,9.65
2023-05-09T04:47:23.216Z,9.80
2023-05-09T04:49:50.609Z,9.57
2023-05-09T04:52:17.712Z,9.02
2023-05-09T04:54:45.312Z,9.98
2023-05-09T04:57:18.396Z,8.70
2023-05-09T04:59:52.741Z,9.10
2023-05-09T05:02:21.379Z,9.05
2023-05-09T05:04:54.334Z,8.75
2023-05-09T05:07:26.375Z,8.73
2023-05-09T05:09:54.407Z,8.93
2023-05-09T05:12:22.705Z,8.68
2023-05-09T05:14:50.487Z,10.05
2023-05-09T05:17:21.609Z,10.15
2023-05-09T05:19:49.071Z,9.60
2023-05-09T05:22:16.631Z,9.38
2023-05-09T05:24:46.383Z,9.45
2023-05-09T05:27:14.372Z,10.40
2023-05-09T05:29:41.561Z,10.65
2023-05-09T05:32:08.838Z,11.23
2023-05-09T05:34:36.324Z,10.57
2023-05-09T05:37:03.917Z,11.13
2023-05-09T05:39:31.092Z,11.10
2023-05-09T05:41:58.507Z,11.00
2023-05-09T05:44:26.202Z,10.68
2023-05-09T05:46:53.757Z,10.75
2023-05-09T05:49:21.359Z,10.88
2023-05-09T05:51:48.728Z,11.95
2023-05-09T05:54:17.048Z,12.20
2023-05-09T05:56:44.569Z,12.95
2023-05-09T05:59:13.322Z,12.65
2023-05-09T06:01:41.452Z,11.13
2023-05-09T06:04:08.644Z,13.60
2023-05-09T06:06:36.241Z,15.20
2023-05-09T06:09:03.703Z,16.88
2023-05-09T06:11:30.930Z,17.27
2023-05-09T06:13:59.131Z,17.98
2023-05-09T06:16:27.972Z,20.13
2023-05-09T06:18:56.048Z,21.85
2023-05-09T06:21:23.602Z,20.73
2023-05-09T06:24:06.630Z,22.60
2023-05-09T06:26:38.492Z,18.30
2023-05-09T06:29:08.489Z,17.77
2023-05-09T06:31:38.548Z,18.35
2023-05-09T06:34:06.237Z,19.52
2023-05-09T06:36:34.069Z,18.55
2023-05-09T06:39:01.598Z,22.80
2023-05-09T06:41:28.987Z,21.90
2023-05-09T06:43:56.031Z,22.60
2023-05-09T06:46:23.410Z,23.02
2023-05-09T06:48:50.737Z,22.35
2023-05-09T06:51:18.195Z,22.73
2023-05-09T06:53:45.261Z,23.08
2023-05-09T06:56:12.487Z,25.42
2023-05-09T06:58:39.661Z,24.13
2023-05-09T07:01:06.944Z,23.83
2023-05-09T07:03:35.198Z,24.40
2023-05-09T07:06:02.559Z,25.27
2023-05-09T07:08:29.601Z,26.02
2023-05-09T07:10:56.585Z,27.25
2023-05-09T07:13:25.032Z,27.08
2023-05-09T07:15:53.415Z,25.83
2023-05-09T07:18:20.876Z,25.77
2023-05-09T07:20:48.012Z,27.00
2023-05-09T07:23:15.885Z,25.13
2023-05-09T07:25:44.898Z,23.88
2023-05-09T07:28:12.861Z,25.27
2023-05-09T07:30:41.305Z,24.67
2023-05-09T07:33:08.499Z,24.73
2023-05-09T07:35:35.773Z,27.60
2023-05-09T07:38:02.857Z,27.40
2023-05-09T07:40:30.055Z,26.60
2023-05-09T07:42:57.261Z,27.65
2023-05-09T07:45:24.312Z,25.73
2023-05-09T07:47:51.806Z,26.42
2023-05-09T07:50:20.487Z,26.70
2023-05-09T07:52:48.056Z,27.25
2023-05-09T07:55:15.358Z,26.23
2023-05-09T07:57:42.553Z,27.58
2023-05-09T08:00:10.384Z,29.05
2023-05-09T08:02:43.599Z,28.38
2023-05-09T08:05:11.757Z,29.35
2023-05-09T08:07:39.040Z,27.10
2023-05-09T08:10:06.980Z,28.85
2023-05-09T08:12:34.483Z,27.02
2023-05-09T08:15:02.303Z,28.15
2023-05-09T08:17:32.013Z,27.33
2023-05-09T08:19:59.010Z,27.30
2023-05-09T08:22:26.679Z,27.52
2023-05-09T08:24:53.826Z,28.33
2023-05-09T08:27:21.116Z,27.85
2023-05-09T08:29:48.878Z,28.48
2023-05-09T08:32:16.192Z,29.02
2023-05-09T08:34:43.368Z,27.98
2023-05-09T08:37:11.457Z,28.23
2023-05-09T08:39:39.656Z,29.02
2023-05-09T08:42:07.177Z,27.75
2023-05-09T08:44:34.191Z,27.40
2023-05-09T08:47:03.092Z,29.52
2023-05-09T08:49:30.549Z,29.10
2023-05-09T08:51:57.671Z,28.73
2023-05-09T08:54:25.026Z,28.42
2023-05-09T08:56:52.453Z,28.60
2023-05-09T08:59:19.703Z,28.10
2023-05-09T09:01:46.956Z,29.23
2023-05-09T09:04:14.628Z,28.67
2023-05-09T09:06:41.775Z,27.70
2023-05-09T09:09:09.115Z,28.30
2023-05-09T09:11:37.076Z,27.70
2023-05-09T09:14:12.996Z,27.90
2023-05-09T09:16:43.875Z,28.38
2023-05-09T09:19:13.191Z,28.50
2023-05-09T09:21:47.370Z,28.58
2023-05-09T09:24:14.672Z,37.63
2023-05-09T09:26:48.717Z,27.75
2023-05-09T09:29:17.256Z,28.52
2023-05-09T09:31:48.188Z,27.98
2023-05-09T09:34:21.003Z,29.30
2023-05-09T09:36:48.766Z,26.02
2023-05-09T09:39:16.370Z,25.83
2023-05-09T09:41:44.902Z,26.05
2023-05-09T09:44:17.015Z,24.80
2023-05-09T09:46:55.187Z,23.63
2023-05-09T09:49:24.153Z,23.00
2023-05-09T09:51:55.512Z,24.52
2023-05-09T09:54:22.703Z,24.55
2023-05-09T09:56:54.239Z,24.70
2023-05-09T09:59:24.825Z,24.73
2023-05-09T10:01:59.914Z,25.35
2023-05-09T10:04:37.343Z,24.17
2023-05-09T10:07:05.951Z,25.38
2023-05-09T10:09:34.149Z,23.52
2023-05-09T10:12:06.030Z,24.63
2023-05-09T10:14:35.422Z,23.85
2023-05-09T10:17:04.330Z,23.48
2023-05-09T10:19:31.933Z,20.08
2023-05-09T10:22:04.053Z,19.92
2023-05-09T10:24:47.213Z,19.45
2023-05-09T10:27:14.523Z,15.85
2023-05-09T10:29:45.560Z,14.52
2023-05-09T10:32:17.576Z,13.25
2023-05-09T10:34:47.730Z,7.55
2023-05-09T10:37:16.124Z,9.40
2023-05-09T10:39:43.795Z,8.02
2023-05-09T10:42:11.205Z,7.35
2023-05-09T10:44:38.840Z,10.35
2023-05-09T10:47:06.110Z,6.47
2023-05-09T10:49:35.464Z,7.70
2023-05-09T10:52:04.806Z,8.98
2023-05-09T10:54:33.671Z,5.32
2023-05-09T13:45:44.065Z,12.82
